SANU/UAQ METAR and TAF weather

Enter ICAO airport designator
Station Type Date Time Source
SANU METAR 2019/12/02 23:23 UTC NOAA

SANU 022323Z 14014KT 2500 TSRA SCT040CB SCT060 28/13 Q1006


Station Type Date Time Source
SANU Decoded METAR 2019/12/02 23:23 UTC NOAA

San Juan Aerodrome, Argentina (SANU) 31-34S 068-52W 598M
Dec 02, 2019 - 06:23 PM EST / 2019.12.02 2323 UTC
Wind: from the SE (140 degrees) at 16 MPH (14 KT):0
Visibility: 1 mile(s):0
Sky conditions: partly cloudy
Weather: rain with thunder; Cumulonimbus clouds observed
Temperature: 82 F (28 C)
Dew Point: 55 F (13 C)
Relative Humidity: 39%
Pressure (altimeter): 29.71 in. Hg (1006 hPa)
ob: SANU 022323Z 14014KT 2500 TSRA SCT040CB SCT060 28/13 Q1006
cycle: 23

Station Type Date Time Source
SANU TAF 2019/08/18 18:03 UTC NOAA

TAF TAF SANU 181700Z 1818/1912 18010KT 9999 FEW030 SCT070 TX17/1819Z TN01/1911Z

Example: see airport list